createdAt,value
2023-05-19T00:00:33.248Z,102698.47
2023-05-19T00:03:03.398Z,102704.41
2023-05-19T00:05:32.054Z,102705.13
2023-05-19T00:08:01.165Z,102714.50
2023-05-19T00:10:31.919Z,102699.81
2023-05-19T00:13:00.893Z,102714.81
2023-05-19T00:15:29.309Z,102716.53
2023-05-19T00:17:57.460Z,102716.03
2023-05-19T00:20:26.723Z,102719.56
2023-05-19T00:22:54.899Z,102715.66
2023-05-19T00:25:22.985Z,102716.38
2023-05-19T00:27:50.929Z,102705.09
2023-05-19T00:30:18.947Z,102721.31
2023-05-19T00:32:46.948Z,102723.81
2023-05-19T00:35:15.833Z,102720.91
2023-05-19T00:37:47.346Z,102720.72
2023-05-19T00:40:15.449Z,102726.75
2023-05-19T00:42:43.579Z,102724.13
2023-05-19T00:45:11.878Z,102723.84
2023-05-19T00:47:40.535Z,102727.97
2023-05-19T00:50:08.940Z,102726.94
2023-05-19T00:52:36.868Z,102738.22
2023-05-19T00:55:08.137Z,102732.59
2023-05-19T00:57:36.354Z,102736.72
2023-05-19T01:00:05.803Z,102736.50
2023-05-19T01:02:34.004Z,102726.56
2023-05-19T01:05:03.220Z,102738.22
2023-05-19T01:07:31.227Z,102734.59
2023-05-19T01:09:59.451Z,102738.03
2023-05-19T01:12:28.932Z,102733.28
2023-05-19T01:14:57.814Z,102738.81
2023-05-19T01:17:35.393Z,102739.50
2023-05-19T01:20:12.294Z,102729.34
2023-05-19T01:23:00.827Z,102747.25
2023-05-19T01:26:13.785Z,102730.72
2023-05-19T01:29:03.947Z,102755.50
2023-05-19T01:31:34.551Z,102751.88
2023-05-19T01:34:04.725Z,102745.19
2023-05-19T01:36:34.305Z,102753.22
2023-05-19T01:39:03.366Z,102759.72
2023-05-19T01:41:36.497Z,102733.72
2023-05-19T01:44:04.523Z,102748.44
2023-05-19T01:46:34.088Z,102753.78
2023-05-19T01:49:03.067Z,102752.28
2023-05-19T01:51:32.110Z,102748.06
2023-05-19T01:54:00.254Z,102753.28
2023-05-19T01:56:35.164Z,102753.19
2023-05-19T01:59:17.775Z,102747.66
2023-05-19T02:01:54.405Z,102740.84
2023-05-19T02:04:30.480Z,102747.44
2023-05-19T02:07:04.775Z,102756.84
2023-05-19T02:09:40.737Z,102695.47
2023-05-19T02:12:15.566Z,102743.38
2023-05-19T02:14:49.472Z,102754.84
2023-05-19T02:17:19.913Z,102755.63
2023-05-19T02:19:48.614Z,102747.28
2023-05-19T02:22:16.490Z,102758.75
2023-05-19T02:24:45.148Z,102756.81
2023-05-19T02:27:13.115Z,102763.75
2023-05-19T02:29:41.425Z,102761.84
2023-05-19T02:32:09.459Z,102751.19
2023-05-19T02:34:38.804Z,102751.97
2023-05-19T02:37:07.721Z,102754.28
2023-05-19T02:39:35.994Z,102762.44
2023-05-19T02:42:04.177Z,102739.78
2023-05-19T02:44:33.056Z,102755.38
2023-05-19T02:47:00.925Z,102759.72
2023-05-19T02:49:31.536Z,102730.81
2023-05-19T02:52:01.792Z,102767.75
2023-05-19T02:54:29.868Z,102762.53
2023-05-19T02:56:57.768Z,102765.25
2023-05-19T02:59:26.371Z,102616.06
2023-05-19T03:01:56.976Z,102751.28
2023-05-19T03:04:24.883Z,102741.63
2023-05-19T03:06:54.191Z,102752.41
2023-05-19T03:09:23.551Z,102771.09
2023-05-19T03:11:51.543Z,102757.63
2023-05-19T03:14:24.281Z,102769.50
2023-05-19T03:16:52.679Z,102768.69
2023-05-19T03:19:20.775Z,102765.97
2023-05-19T03:21:49.715Z,102751.69
2023-05-19T03:24:18.190Z,102765.97
2023-05-19T03:26:47.822Z,102774.38
2023-05-19T03:29:15.704Z,102776.19
2023-05-19T03:31:43.820Z,102777.19
2023-05-19T03:34:11.692Z,102783.44
2023-05-19T03:36:39.939Z,102781.94
2023-05-19T03:39:08.275Z,102783.84
2023-05-19T03:41:36.269Z,102780.44
2023-05-19T03:44:05.938Z,102786.88
2023-05-19T03:46:33.999Z,102755.13
2023-05-19T03:49:01.884Z,102786.09
2023-05-19T03:51:30.151Z,102795.34
2023-05-19T03:53:58.287Z,102793.84
2023-05-19T03:56:27.746Z,102781.25
2023-05-19T03:58:55.968Z,102806.44
2023-05-19T04:01:25.317Z,102795.38
2023-05-19T04:03:53.185Z,102774.44
2023-05-19T04:06:21.185Z,102781.06
2023-05-19T04:08:49.205Z,102801.31
2023-05-19T04:11:17.128Z,102807.66
2023-05-19T04:13:45.352Z,102798.09
2023-05-19T04:16:13.726Z,102802.00
2023-05-19T04:18:45.555Z,102807.56
2023-05-19T04:21:13.663Z,102799.91
2023-05-19T04:23:41.716Z,102740.44
2023-05-19T04:26:09.573Z,102805.03
2023-05-19T04:28:40.131Z,102809.66
2023-05-19T04:31:10.881Z,102804.81
2023-05-19T04:33:39.017Z,102788.91
2023-05-19T04:36:10.635Z,102805.63
2023-05-19T04:38:40.412Z,102812.06
2023-05-19T04:41:11.102Z,102801.97
2023-05-19T04:43:41.683Z,102805.16
2023-05-19T04:46:13.852Z,102774.78
2023-05-19T04:48:42.813Z,102800.63
2023-05-19T04:51:14.340Z,102805.44
2023-05-19T04:53:46.376Z,102810.25
2023-05-19T04:56:15.557Z,102798.03
2023-05-19T04:58:44.885Z,102809.38
2023-05-19T05:01:13.946Z,102800.00
2023-05-19T05:03:42.424Z,102809.50
2023-05-19T05:06:10.552Z,102802.94
2023-05-19T05:08:41.517Z,102806.06
2023-05-19T05:11:10.612Z,102803.09
2023-05-19T05:13:39.003Z,102812.28
2023-05-19T05:16:08.539Z,102816.34
2023-05-19T05:18:44.347Z,102790.56
2023-05-19T05:21:17.124Z,102809.56
2023-05-19T05:23:47.034Z,102793.09
2023-05-19T05:26:19.591Z,102773.56
2023-05-19T05:28:47.731Z,102807.66
2023-05-19T05:31:15.949Z,102811.00
2023-05-19T05:33:44.672Z,102808.88
2023-05-19T05:36:13.757Z,102812.94
2023-05-19T05:38:41.843Z,102816.09
2023-05-19T05:41:11.091Z,102812.97
2023-05-19T05:43:38.986Z,102816.84
2023-05-19T05:46:07.083Z,102821.72
2023-05-19T05:48:35.923Z,102821.31
2023-05-19T05:51:04.527Z,102824.50
2023-05-19T05:53:38.102Z,102818.81
2023-05-19T05:56:06.824Z,102822.84
2023-05-19T05:58:37.757Z,102817.19
2023-05-19T06:01:05.910Z,102806.75
2023-05-19T06:03:35.215Z,102775.63
2023-05-19T06:06:03.254Z,102815.13
2023-05-19T06:08:31.287Z,102813.47
2023-05-19T06:10:59.295Z,102817.66
2023-05-19T06:13:27.488Z,102818.13
2023-05-19T06:15:56.813Z,102827.38
2023-05-19T06:18:24.839Z,102811.38
2023-05-19T06:20:52.786Z,102819.97
2023-05-19T06:23:20.851Z,102831.78
2023-05-19T06:25:48.758Z,102831.34
2023-05-19T06:28:17.012Z,102834.47
2023-05-19T06:30:44.887Z,102837.56
2023-05-19T06:33:14.155Z,102831.97
2023-05-19T06:35:42.193Z,102828.88
2023-05-19T06:38:10.090Z,102833.69
2023-05-19T06:40:38.150Z,102835.94
2023-05-19T06:43:06.117Z,102712.69
2023-05-19T06:45:34.046Z,102824.38
2023-05-19T06:48:02.184Z,102834.53
2023-05-19T06:50:31.911Z,102841.22
2023-05-19T06:53:00.013Z,102837.41
2023-05-19T06:55:28.110Z,102837.81
2023-05-19T06:57:56.378Z,102842.56
2023-05-19T07:00:24.402Z,102833.09
2023-05-19T07:02:52.593Z,102837.97
2023-05-19T07:05:21.096Z,102837.59
2023-05-19T07:07:50.539Z,102838.25
2023-05-19T07:10:18.421Z,102829.94
2023-05-19T07:12:46.414Z,102825.00
2023-05-19T07:15:14.442Z,102847.75
2023-05-19T07:17:42.397Z,102840.47
2023-05-19T07:20:11.217Z,102845.00
2023-05-19T07:22:39.951Z,102842.44
2023-05-19T07:25:10.834Z,102831.75
2023-05-19T07:27:38.689Z,102843.97
2023-05-19T07:30:08.036Z,102836.91
2023-05-19T07:32:35.953Z,102843.38
2023-05-19T07:35:04.386Z,102846.78
2023-05-19T07:37:32.474Z,102806.34
2023-05-19T07:40:00.335Z,102833.34
2023-05-19T07:42:29.600Z,102846.97
2023-05-19T07:44:57.624Z,102846.66
2023-05-19T07:47:25.895Z,102827.19
2023-05-19T07:49:53.873Z,102833.13
2023-05-19T07:52:21.970Z,102844.97
2023-05-19T07:54:49.863Z,102825.97
2023-05-19T07:57:19.043Z,102851.59
2023-05-19T07:59:48.440Z,102850.53
2023-05-19T08:02:16.332Z,102853.31
2023-05-19T08:04:44.347Z,102841.81
2023-05-19T08:07:12.544Z,102838.19
2023-05-19T08:09:40.449Z,102840.47
2023-05-19T08:12:08.345Z,102829.78
2023-05-19T08:14:36.356Z,102804.44
2023-05-19T08:17:05.723Z,102819.78
2023-05-19T08:19:33.611Z,102825.47
2023-05-19T08:22:02.227Z,102827.91
2023-05-19T08:24:30.651Z,102819.47
2023-05-19T08:26:59.182Z,102818.34
2023-05-19T08:29:27.207Z,102818.66
2023-05-19T08:31:55.323Z,102824.25
2023-05-19T08:34:24.654Z,102826.59
2023-05-19T08:36:53.562Z,102820.53
2023-05-19T08:39:26.600Z,102807.81
2023-05-19T08:41:54.671Z,102823.44
2023-05-19T08:44:22.815Z,102821.66
2023-05-19T08:46:50.978Z,102818.00
2023-05-19T08:49:25.720Z,102816.78
2023-05-19T08:52:01.638Z,102818.25
2023-05-19T08:54:40.097Z,102822.97
2023-05-19T08:57:10.070Z,102820.84
2023-05-19T08:59:38.685Z,102819.38
2023-05-19T09:02:07.733Z,102822.84
2023-05-19T09:04:37.018Z,102831.88
2023-05-19T09:07:07.087Z,102823.75
2023-05-19T09:09:34.960Z,102816.56
2023-05-19T09:12:05.456Z,102801.09
2023-05-19T09:14:34.804Z,102824.31
2023-05-19T09:17:03.446Z,102826.22
2023-05-19T09:19:31.872Z,102810.19
2023-05-19T09:22:01.466Z,102799.06
2023-05-19T09:24:31.094Z,102795.31
2023-05-19T09:27:00.346Z,102758.22
2023-05-19T09:29:28.670Z,102813.91
2023-05-19T09:32:00.888Z,102812.94
2023-05-19T09:34:29.070Z,102806.53
2023-05-19T09:36:58.116Z,102788.31
2023-05-19T09:39:26.322Z,102803.66
2023-05-19T09:41:58.617Z,102745.41
2023-05-19T09:44:29.825Z,102801.38
2023-05-19T09:46:58.817Z,102814.31
2023-05-19T09:49:29.619Z,102816.31
2023-05-19T09:51:58.686Z,102799.41
2023-05-19T09:54:29.761Z,102803.53
2023-05-19T09:57:03.686Z,102787.00
2023-05-19T09:59:33.770Z,102668.41
2023-05-19T10:02:03.056Z,102793.69
2023-05-19T10:04:32.350Z,102793.59
2023-05-19T10:07:00.799Z,102795.75
2023-05-19T10:09:30.597Z,102703.13
2023-05-19T10:11:59.802Z,102777.22
2023-05-19T10:14:30.643Z,102781.41
2023-05-19T10:17:00.549Z,102792.59
2023-05-19T10:19:30.045Z,102796.09
2023-05-19T10:21:58.145Z,102794.53
2023-05-19T10:24:26.594Z,102778.50
2023-05-19T10:26:59.798Z,102781.94
2023-05-19T10:29:33.046Z,102786.75
2023-05-19T10:32:06.124Z,102791.28
2023-05-19T10:34:59.343Z,102787.31
2023-05-19T10:37:36.847Z,102784.28
2023-05-19T10:40:12.108Z,102779.31
2023-05-19T10:42:51.413Z,102767.22
2023-05-19T10:45:23.936Z,102766.16
2023-05-19T10:47:52.523Z,102778.22
2023-05-19T10:50:21.453Z,102765.34
2023-05-19T10:52:55.716Z,102746.22
2023-05-19T10:55:52.059Z,102766.03
2023-05-19T10:58:40.401Z,102771.56
2023-05-19T11:01:14.977Z,102780.66
2023-05-19T11:03:48.124Z,102776.88
2023-05-19T11:06:20.635Z,102744.56
2023-05-19T11:08:53.354Z,102777.06
2023-05-19T11:11:23.363Z,102775.16
2023-05-19T11:13:52.807Z,102766.47
2023-05-19T11:16:28.329Z,102714.06
2023-05-19T11:18:57.071Z,102768.31
2023-05-19T11:21:25.040Z,102779.19
2023-05-19T11:23:54.007Z,102747.25
2023-05-19T11:26:44.705Z,102781.97
2023-05-19T11:29:13.702Z,102776.16
2023-05-19T11:31:44.879Z,102714.50
2023-05-19T11:34:14.010Z,102754.94
2023-05-19T11:36:42.907Z,102782.88
2023-05-19T11:39:12.524Z,102773.63
2023-05-19T11:41:40.852Z,102776.13
2023-05-19T11:44:11.889Z,102776.16
2023-05-19T11:46:39.874Z,102770.91
2023-05-19T11:49:10.415Z,102774.66
2023-05-19T11:51:38.484Z,102781.22
2023-05-19T11:54:06.554Z,102776.59
2023-05-19T11:56:38.433Z,102770.28
2023-05-19T11:59:06.313Z,102762.06
2023-05-19T12:01:35.152Z,102756.56
2023-05-19T12:04:10.777Z,102766.53
2023-05-19T12:06:38.792Z,102762.38
2023-05-19T12:09:07.178Z,102769.63
2023-05-19T12:11:35.828Z,102767.88
2023-05-19T12:14:03.741Z,102776.81
2023-05-19T12:16:35.540Z,102761.59
2023-05-19T12:19:06.854Z,102693.56
2023-05-19T12:21:36.507Z,102768.75
2023-05-19T12:24:06.033Z,102775.91
2023-05-19T12:26:34.588Z,102759.69
2023-05-19T12:29:02.629Z,102763.28
2023-05-19T12:31:30.700Z,102762.47
2023-05-19T12:33:59.648Z,102780.38
2023-05-19T12:36:28.652Z,102761.53
2023-05-19T12:38:58.154Z,102755.31
2023-05-19T12:41:27.335Z,102741.78
2023-05-19T12:43:56.155Z,102756.06
2023-05-19T12:46:24.309Z,102755.84
2023-05-19T12:48:52.275Z,102769.47
2023-05-19T12:51:20.925Z,102755.69
2023-05-19T12:53:51.436Z,102772.69
2023-05-19T12:56:21.313Z,102750.47
2023-05-19T12:58:54.368Z,102759.38
2023-05-19T13:01:24.440Z,102764.59
2023-05-19T13:03:52.599Z,102743.41
2023-05-19T13:06:20.662Z,102753.56
2023-05-19T13:08:48.701Z,102758.47
2023-05-19T13:11:16.594Z,102758.59
2023-05-19T13:13:48.769Z,102748.94
2023-05-19T13:16:16.992Z,102761.53
2023-05-19T13:18:45.064Z,102758.50
2023-05-19T13:21:13.531Z,102758.19
2023-05-19T13:23:41.426Z,102748.78
2023-05-19T13:26:11.652Z,102707.41
2023-05-19T13:28:39.522Z,102755.13
2023-05-19T13:31:08.835Z,102738.84
2023-05-19T13:33:36.893Z,102750.09
2023-05-19T13:36:05.178Z,102741.00
2023-05-19T13:38:33.060Z,102736.44
2023-05-19T13:41:01.083Z,102729.94
2023-05-19T13:43:28.950Z,102731.38
2023-05-19T13:45:56.926Z,102623.03
2023-05-19T13:48:26.726Z,102734.84
2023-05-19T13:50:55.720Z,102733.50
2023-05-19T13:53:23.971Z,102735.13
2023-05-19T13:55:55.175Z,102741.94
2023-05-19T13:58:23.323Z,102737.50
2023-05-19T14:00:54.654Z,102738.28
2023-05-19T14:03:22.754Z,102733.78
2023-05-19T14:05:52.281Z,102675.59
2023-05-19T14:08:20.215Z,102743.16
2023-05-19T14:10:52.174Z,102726.28
2023-05-19T14:13:32.602Z,102725.47
2023-05-19T14:16:03.304Z,102730.09
2023-05-19T14:18:32.519Z,102740.31
2023-05-19T14:21:01.814Z,102742.13
2023-05-19T14:23:30.439Z,102726.06
2023-05-19T14:25:58.343Z,102749.50
2023-05-19T14:28:26.621Z,102764.13
2023-05-19T14:30:54.667Z,102706.09
2023-05-19T14:33:22.872Z,102695.34
2023-05-19T14:35:50.847Z,102722.88
2023-05-19T14:38:20.152Z,102735.13
2023-05-19T14:40:48.839Z,102747.63
2023-05-19T14:43:17.914Z,102729.88
2023-05-19T14:45:45.955Z,102750.50
2023-05-19T14:48:13.926Z,102742.59
2023-05-19T14:50:42.234Z,102739.72
2023-05-19T14:53:10.106Z,102730.66
2023-05-19T14:55:39.355Z,102763.03
2023-05-19T14:58:26.753Z,102734.47
2023-05-19T15:00:56.074Z,102757.84
2023-05-19T15:03:24.363Z,102765.91
2023-05-19T15:05:52.320Z,102764.03
2023-05-19T15:08:20.248Z,102747.72
2023-05-19T15:10:51.397Z,102766.56
2023-05-19T15:13:21.503Z,102761.41
2023-05-19T15:15:49.636Z,102765.88
2023-05-19T15:18:18.791Z,102765.03
2023-05-19T15:20:46.833Z,102767.72
2023-05-19T15:23:14.966Z,102743.56
2023-05-19T15:25:42.966Z,102773.03
2023-05-19T15:28:12.627Z,102778.41
2023-05-19T15:30:41.241Z,102772.16
2023-05-19T15:33:09.760Z,102769.56
2023-05-19T15:35:37.705Z,102766.88
2023-05-19T15:38:06.423Z,102772.34
2023-05-19T15:40:34.716Z,102767.84
2023-05-19T15:43:02.864Z,102766.94
2023-05-19T15:45:32.409Z,102772.31
2023-05-19T15:48:00.385Z,102782.16
2023-05-19T15:50:28.548Z,102763.28
2023-05-19T15:52:56.574Z,102765.09
2023-05-19T15:55:24.469Z,102758.81
2023-05-19T15:57:52.396Z,102772.22
2023-05-19T16:00:20.559Z,102761.41
2023-05-19T16:02:50.096Z,102768.41
2023-05-19T16:05:18.018Z,102770.03
2023-05-19T16:07:46.211Z,102638.50
2023-05-19T16:10:14.137Z,102774.66
2023-05-19T16:12:42.018Z,102769.31
2023-05-19T16:15:10.855Z,102779.22
2023-05-19T16:17:38.765Z,102770.16
2023-05-19T16:20:09.509Z,102751.31
2023-05-19T16:22:37.661Z,102771.88
2023-05-19T16:25:06.597Z,102771.00
2023-05-19T16:27:34.467Z,102790.63
2023-05-19T16:30:03.272Z,102781.44
2023-05-19T16:32:31.268Z,102789.84
2023-05-19T16:34:59.178Z,102794.97
2023-05-19T16:37:28.579Z,102795.84
2023-05-19T16:39:56.567Z,102799.34
2023-05-19T16:42:24.503Z,102782.91
2023-05-19T16:44:52.522Z,102785.63
2023-05-19T16:47:20.451Z,102744.25
2023-05-19T16:49:48.321Z,102777.47
2023-05-19T16:52:16.328Z,102794.63
2023-05-19T16:54:45.875Z,102794.19
2023-05-19T16:57:14.872Z,102790.16
2023-05-19T16:59:43.048Z,102790.59
2023-05-19T17:02:11.051Z,102787.28
2023-05-19T17:04:39.017Z,102790.53
2023-05-19T17:07:07.678Z,102810.81
2023-05-19T17:09:35.907Z,102798.69
2023-05-19T17:12:07.899Z,102792.28
2023-05-19T17:14:39.544Z,102804.59
2023-05-19T17:17:07.534Z,102794.66
2023-05-19T17:19:35.854Z,102813.50
2023-05-19T17:22:03.883Z,102811.09
2023-05-19T17:24:33.359Z,102819.25
2023-05-19T17:27:01.985Z,102813.22
2023-05-19T17:29:31.356Z,102810.69
2023-05-19T17:31:59.303Z,102811.81
2023-05-19T17:34:28.215Z,102808.34
2023-05-19T17:36:56.377Z,102806.00
2023-05-19T17:39:24.489Z,102806.56
2023-05-19T17:41:52.434Z,102816.88
2023-05-19T17:44:20.415Z,102815.50
2023-05-19T17:46:49.837Z,102816.91
2023-05-19T17:49:17.796Z,102818.59
2023-05-19T17:51:46.146Z,102823.41
2023-05-19T17:54:14.634Z,102826.47
2023-05-19T17:56:43.657Z,102830.44
2023-05-19T17:59:12.322Z,102839.66
2023-05-19T18:01:40.976Z,102831.38
2023-05-19T18:04:13.125Z,102837.16
2023-05-19T18:06:46.050Z,102834.88
2023-05-19T18:09:15.210Z,102830.81
2023-05-19T18:11:43.182Z,102841.81
2023-05-19T18:14:11.369Z,102848.38
2023-05-19T18:16:39.395Z,102827.47
2023-05-19T18:19:07.472Z,102846.16
2023-05-19T18:21:37.321Z,102854.72
2023-05-19T18:24:05.579Z,102850.72
2023-05-19T18:26:45.957Z,102850.47
2023-05-19T18:29:17.917Z,102840.41
2023-05-19T18:31:45.849Z,102855.31
2023-05-19T18:34:14.071Z,102826.84
2023-05-19T18:36:43.598Z,102860.13
2023-05-19T18:39:11.614Z,102835.31
2023-05-19T19:08:07.890Z,102888.78
2023-05-19T19:10:39.156Z,102870.19
2023-05-19T19:13:07.404Z,102891.28
2023-05-19T19:15:35.853Z,102891.59
2023-05-19T19:18:04.554Z,102877.56
2023-05-19T19:20:34.398Z,102890.59
2023-05-19T19:23:06.306Z,102886.47
2023-05-19T19:25:35.829Z,102891.41
2023-05-19T19:28:03.844Z,102899.06
2023-05-19T19:30:32.258Z,102882.56
2023-05-19T19:33:00.665Z,102893.09
2023-05-19T19:35:28.717Z,102879.78
2023-05-19T19:37:56.917Z,102896.66
2023-05-19T19:40:25.005Z,102895.44
2023-05-19T19:42:54.392Z,102869.94
2023-05-19T19:45:22.336Z,102905.31
2023-05-19T19:47:51.720Z,102909.50
2023-05-19T19:50:19.897Z,102907.59
2023-05-19T19:52:47.873Z,102887.63
2023-05-19T19:55:16.060Z,102912.63
2023-05-19T19:57:45.684Z,102911.72
2023-05-19T20:00:16.767Z,102890.34
2023-05-19T20:03:02.990Z,102913.34
2023-05-19T20:05:32.847Z,102925.25
2023-05-19T20:08:01.184Z,102913.75
2023-05-19T20:10:29.273Z,102923.69
2023-05-19T20:12:58.948Z,102901.88
2023-05-19T20:15:28.306Z,102917.00
2023-05-19T20:17:56.341Z,102913.63
2023-05-19T20:20:24.461Z,102913.47
2023-05-19T20:22:52.602Z,102914.13
2023-05-19T20:25:20.526Z,102910.66
2023-05-19T20:27:48.765Z,102911.31
2023-05-19T20:30:16.790Z,102844.63
2023-05-19T20:32:47.054Z,102924.63
2023-05-19T20:35:15.302Z,102919.28
2023-05-19T20:37:43.365Z,102912.59
2023-05-19T20:40:11.782Z,102901.94
2023-05-19T20:42:41.122Z,102926.56
2023-05-19T20:45:10.033Z,102930.66
2023-05-19T20:47:38.143Z,102933.56
2023-05-19T20:50:08.796Z,102936.81
2023-05-19T20:52:36.886Z,102941.72
2023-05-19T20:55:05.196Z,102886.31
2023-05-19T20:57:33.624Z,102935.56
2023-05-19T21:00:01.666Z,102929.94
2023-05-19T21:02:29.624Z,102940.28
2023-05-19T21:04:57.800Z,102929.41
2023-05-19T21:07:27.462Z,102937.91
2023-05-19T21:09:56.324Z,102943.78
2023-05-19T21:12:25.440Z,102946.94
2023-05-19T21:14:53.407Z,102939.00
2023-05-19T21:17:21.495Z,102936.00
2023-05-19T21:19:50.744Z,102948.94
2023-05-19T21:22:19.074Z,102945.13
2023-05-19T21:24:48.689Z,102946.84
2023-05-19T21:27:16.760Z,102952.00
2023-05-19T21:29:44.809Z,102952.00
2023-05-19T21:32:12.797Z,102947.47
2023-05-19T21:34:40.841Z,102950.72
2023-05-19T21:37:08.872Z,102944.19
2023-05-19T21:39:36.750Z,102952.34
2023-05-19T21:42:07.469Z,102947.19
2023-05-19T21:44:35.609Z,102948.09
2023-05-19T21:47:03.544Z,102844.13
2023-05-19T21:49:31.672Z,102944.38
2023-05-19T21:51:59.885Z,102928.97
2023-05-19T21:54:27.807Z,102945.81
2023-05-19T21:56:55.917Z,102944.59
2023-05-19T21:59:26.328Z,102948.03
2023-05-19T22:01:54.368Z,102949.56
2023-05-19T22:04:23.731Z,102952.28
2023-05-19T22:06:51.794Z,102944.41
2023-05-19T22:09:19.723Z,102950.38
2023-05-19T22:11:47.726Z,102944.22
2023-05-19T22:14:15.877Z,102942.25
2023-05-19T22:16:47.572Z,102939.97
2023-05-19T22:19:15.828Z,102952.88
2023-05-19T22:21:44.008Z,102956.22
2023-05-19T22:24:11.941Z,102913.69
2023-05-19T22:26:42.881Z,102961.28
2023-05-19T22:29:15.165Z,102949.66
2023-05-19T22:31:43.136Z,102933.84
2023-05-19T22:34:15.144Z,102952.97
2023-05-19T22:36:44.308Z,102949.25
2023-05-19T22:39:12.749Z,102953.59
2023-05-19T22:41:41.297Z,102950.50
2023-05-19T22:44:10.443Z,102959.44
2023-05-19T22:46:38.525Z,102955.03
2023-05-19T22:49:06.628Z,102944.16
2023-05-19T22:51:36.067Z,102947.66
2023-05-19T22:54:04.040Z,102939.31
2023-05-19T22:56:32.180Z,102962.41
2023-05-19T22:59:00.616Z,102959.56
2023-05-19T23:01:28.572Z,102964.53
2023-05-19T23:03:56.776Z,102964.31
2023-05-19T23:06:24.952Z,102963.22
2023-05-19T23:09:03.382Z,102968.16
2023-05-19T23:11:31.317Z,102968.66
2023-05-19T23:13:59.354Z,102971.59
2023-05-19T23:16:27.500Z,102967.88
2023-05-19T23:18:55.589Z,102964.34
2023-05-19T23:21:23.637Z,102963.31
2023-05-19T23:23:51.897Z,102940.47
2023-05-19T23:26:21.469Z,102970.97
2023-05-19T23:28:49.452Z,102966.44
2023-05-19T23:31:17.525Z,102964.53
2023-05-19T23:33:45.608Z,102908.91
2023-05-19T23:36:13.616Z,102954.47
2023-05-19T23:38:41.779Z,102959.50
2023-05-19T23:41:09.685Z,102962.00
2023-05-19T23:43:39.121Z,102927.44
2023-05-19T23:46:07.746Z,102894.91
2023-05-19T23:48:36.719Z,102950.00
2023-05-19T23:51:04.821Z,102965.13
2023-05-19T23:53:32.897Z,102965.13
2023-05-19T23:56:00.860Z,102968.66
2023-05-19T23:58:28.870Z,102973.69
